Homestead Gen Aviation, FL

6:48 PM EDT on October 22, 2017 (GMT -0400)
Skydive Miami | | Change Station

Elev 9 ft 25.50 °N, 80.55 °W | Updated 22 seconds ago

Mostly Cloudy
Mostly Cloudy
82.8 °F
Feels Like 91 °F
N
9.4
Wind Variable Wind from NE
Gusts 14.8 mph

Today
High -- | Low -- °F
--% Chance of Precip.
Yesterday
High -- | Low -- °F
Precip. -- in
Pressure 30.05 in
Visibility 10.0 miles
Clouds Few 2600 ft
Scattered Clouds 3200 ft
Scattered Clouds 4000 ft
Heat Index 91 °F
Dew Point 76 °F
Humidity 80%
Rainfall 0.04 in
Snow Depth Not available.
7:24 AM 6:48 PM
Waxing Crescent, 9% visible
SPECI KHST 222204Z AUTO 07011G18KT 10SM FEW026 SCT032 SCT040 27/26 A3004 RMK AO2 RAE04 SLP176
Pressure 30.05 in
Visibility 10.0 miles
Clouds Few 2600 ft
Scattered Clouds 3200 ft
Scattered Clouds 4000 ft
Heat Index 91 °F
Dew Point 76 °F
Humidity 80%
Rainfall 0.04 in
Snow Depth Not available.
7:24 AM 6:48 PM
Waxing Crescent, 9% visible
SPECI KHST 222204Z AUTO 07011G18KT 10SM FEW026 SCT032 SCT040 27/26 A3004 RMK AO2 RAE04 SLP176

Get Severe Weather Alerts

Thanks for signing up!

Be on the lookout for a verification email in your inbox.

You'll start receiving the daily forecast at 6 AM.

×

10-Day Weather Forecast

Almanac

Astronomy

Oct. 22, 2017 Rise Set
Actual Time
Civil Twilight
Nautical Twilight
Astronomical Twilight
Moon
Length of Visible Light
Length of Day
Tomorrow will be .
, % of the Moon is Illuminated

Today's Extremes

State Highs State Lows

Community

WunderPhotos

Category 6

Welcome to Category 6. This is the collective home for Weather Underground's featured writeups by Dr. Jeff Masters (right), Bob Henson (left), Chris Burt, and other regular contributors.

Nearby

Air Quality

  Air Quality AQ Index Pollutant
Not available.

Snow Depth

Station Depth Elevation

Earthquake Activity

City Distance Mag. Time & Date
Minimum magnitude displayed is 2.5.

Coastal Water Temperatures

Place Temperature

Stations

Nearby Weather Stations

Station Location Temp. Windchill Dew Point Humidity Wind Precip. Elev Updated Type
                   

Watches & Warnings

There are currently no watches in effect.